createdAt,value
2019-06-27T00:00:27.582Z,0.00
2019-06-27T00:01:27.584Z,0.00
2019-06-27T00:02:27.585Z,0.00
2019-06-27T00:03:27.590Z,0.00
2019-06-27T00:04:27.595Z,0.00
2019-06-27T00:05:27.600Z,0.00
2019-06-27T00:06:27.616Z,0.00
2019-06-27T00:07:27.605Z,0.00
2019-06-27T00:08:27.621Z,0.00
2019-06-27T00:09:27.619Z,0.00
2019-06-27T00:10:27.626Z,0.00
2019-06-27T00:11:27.624Z,0.00
2019-06-27T00:12:27.643Z,0.00
2019-06-27T00:13:27.636Z,0.00
2019-06-27T00:14:28.030Z,0.00
2019-06-27T00:15:27.639Z,0.00
2019-06-27T00:16:27.650Z,0.00
2019-06-27T00:17:27.650Z,0.00
2019-06-27T00:18:27.654Z,0.00
2019-06-27T00:19:27.660Z,0.00
2019-06-27T00:20:27.659Z,0.00
2019-06-27T00:21:27.709Z,0.00
2019-06-27T00:22:27.672Z,0.00
2019-06-27T00:23:27.697Z,0.00
2019-06-27T00:24:27.680Z,0.00
2019-06-27T00:25:27.683Z,0.00
2019-06-27T00:26:27.686Z,0.00
2019-06-27T00:27:27.689Z,0.00
2019-06-27T00:28:27.694Z,0.00
2019-06-27T00:29:27.701Z,0.00
2019-06-27T00:30:27.702Z,0.00
2019-06-27T00:31:27.705Z,0.00
2019-06-27T00:32:27.712Z,0.00
2019-06-27T00:33:27.721Z,0.00
2019-06-27T00:34:27.718Z,0.00
2019-06-27T00:35:27.724Z,0.00
2019-06-27T00:36:27.743Z,0.00
2019-06-27T00:37:27.729Z,0.00
2019-06-27T00:38:27.734Z,0.00
2019-06-27T00:39:27.741Z,0.00
2019-06-27T00:40:27.742Z,0.00
2019-06-27T00:41:27.746Z,0.00
2019-06-27T00:42:27.750Z,0.00
2019-06-27T00:43:27.756Z,0.00
2019-06-27T00:44:27.757Z,0.00
2019-06-27T00:45:28.493Z,0.00
2019-06-27T00:46:27.773Z,0.00
2019-06-27T00:47:27.765Z,0.00
2019-06-27T00:48:27.771Z,0.00
2019-06-27T00:49:27.778Z,0.00
2019-06-27T00:50:27.780Z,0.00
2019-06-27T00:51:27.787Z,0.00
2019-06-27T00:52:27.787Z,0.00
2019-06-27T00:53:27.793Z,0.00
2019-06-27T00:54:27.793Z,0.00
2019-06-27T00:55:27.801Z,0.00
2019-06-27T00:56:27.805Z,0.00
2019-06-27T00:57:27.810Z,0.00
2019-06-27T00:58:27.816Z,0.00
2019-06-27T00:59:27.824Z,0.00
2019-06-27T01:00:27.820Z,0.00
2019-06-27T01:01:27.823Z,0.00
2019-06-27T01:02:27.830Z,0.00
2019-06-27T01:03:27.832Z,0.00
2019-06-27T01:04:27.833Z,0.00
2019-06-27T01:05:27.838Z,0.00
2019-06-27T01:06:27.919Z,0.00
2019-06-27T01:07:27.844Z,0.00
2019-06-27T01:08:27.845Z,0.00
2019-06-27T01:09:27.854Z,0.00
2019-06-27T01:10:27.851Z,0.00
2019-06-27T01:11:27.897Z,0.00
2019-06-27T01:12:27.865Z,0.00
2019-06-27T01:13:27.862Z,0.00
2019-06-27T01:14:27.869Z,0.00
2019-06-27T01:15:27.872Z,0.00
2019-06-27T01:16:27.876Z,0.00
2019-06-27T01:17:27.882Z,0.00
2019-06-27T01:18:27.888Z,0.00
2019-06-27T01:19:27.887Z,0.00
2019-06-27T01:20:27.887Z,0.00
2019-06-27T01:21:27.909Z,0.00
2019-06-27T01:22:27.903Z,0.00
2019-06-27T01:23:27.918Z,0.00
2019-06-27T01:24:27.916Z,0.00
2019-06-27T01:25:27.909Z,0.00
2019-06-27T01:26:27.910Z,0.00
2019-06-27T01:27:30.232Z,0.00
2019-06-27T01:28:27.960Z,0.00
2019-06-27T01:29:27.923Z,0.00
2019-06-27T01:30:27.925Z,0.00
2019-06-27T01:31:27.929Z,0.00
2019-06-27T01:32:27.936Z,0.00
2019-06-27T01:33:27.935Z,0.00
2019-06-27T01:34:27.940Z,0.00
2019-06-27T01:35:27.943Z,0.00
2019-06-27T01:36:27.945Z,0.00
2019-06-27T01:37:27.953Z,0.00
2019-06-27T01:38:27.955Z,0.00
2019-06-27T01:39:27.958Z,0.00
2019-06-27T01:40:27.961Z,0.00
2019-06-27T01:41:27.965Z,0.00
2019-06-27T01:42:27.985Z,0.00
2019-06-27T01:43:27.969Z,0.00
2019-06-27T01:44:27.972Z,0.00
2019-06-27T01:45:27.977Z,0.00
2019-06-27T01:46:27.983Z,0.00
2019-06-27T01:47:27.984Z,0.00
2019-06-27T01:48:27.986Z,0.00
2019-06-27T01:49:27.990Z,0.00
2019-06-27T01:50:27.990Z,0.00
2019-06-27T01:51:27.997Z,0.00
2019-06-27T01:52:28.010Z,0.00
2019-06-27T01:53:28.003Z,0.00
2019-06-27T01:54:28.007Z,0.00
2019-06-27T01:55:28.010Z,0.00
2019-06-27T01:56:28.014Z,0.00
2019-06-27T01:57:28.017Z,0.00
2019-06-27T01:58:28.019Z,0.00
2019-06-27T01:59:28.027Z,0.00
2019-06-27T02:00:28.029Z,0.00
2019-06-27T02:01:28.029Z,0.00
2019-06-27T02:02:28.033Z,0.00
2019-06-27T02:03:28.037Z,0.00
2019-06-27T02:04:28.039Z,0.00
2019-06-27T02:05:28.042Z,0.00
2019-06-27T02:06:28.045Z,0.00
2019-06-27T02:07:28.049Z,0.00
2019-06-27T02:08:28.066Z,0.00
2019-06-27T02:09:28.056Z,0.00
2019-06-27T02:10:28.058Z,0.00
2019-06-27T02:11:28.061Z,0.00
2019-06-27T02:12:28.069Z,0.00
2019-06-27T02:13:28.067Z,0.00
2019-06-27T02:14:28.071Z,0.00
2019-06-27T02:15:28.074Z,0.00
2019-06-27T02:16:28.080Z,0.00
2019-06-27T02:17:28.084Z,0.00
2019-06-27T02:18:28.088Z,0.00
2019-06-27T02:19:28.085Z,0.00
2019-06-27T02:20:28.103Z,0.00
2019-06-27T02:21:28.098Z,0.00
2019-06-27T02:22:28.098Z,0.00
2019-06-27T02:23:28.100Z,0.00
2019-06-27T02:24:28.107Z,0.00
2019-06-27T02:25:28.108Z,0.00
2019-06-27T02:26:28.111Z,0.00
2019-06-27T02:27:28.116Z,0.00
2019-06-27T02:28:28.114Z,0.00
2019-06-27T02:29:28.123Z,0.00
2019-06-27T02:30:28.119Z,0.00
2019-06-27T02:31:28.130Z,0.00
2019-06-27T02:32:28.135Z,0.00
2019-06-27T02:33:28.134Z,0.00
2019-06-27T02:34:28.146Z,0.00
2019-06-27T02:35:28.162Z,0.00
2019-06-27T02:36:28.305Z,0.00
2019-06-27T02:37:28.146Z,0.00
2019-06-27T02:38:28.153Z,0.00
2019-06-27T02:39:28.151Z,0.00
2019-06-27T02:40:28.154Z,0.00
2019-06-27T02:41:28.159Z,0.00
2019-06-27T02:42:29.631Z,0.00
2019-06-27T02:43:28.165Z,0.00
2019-06-27T02:44:28.170Z,0.00
2019-06-27T02:45:28.172Z,0.00
2019-06-27T02:46:28.179Z,0.00
2019-06-27T02:47:28.177Z,0.00
2019-06-27T02:48:28.244Z,0.00
2019-06-27T02:49:28.185Z,0.00
2019-06-27T02:50:28.229Z,0.00
2019-06-27T02:51:28.190Z,0.00
2019-06-27T02:52:28.193Z,0.00
2019-06-27T02:53:28.197Z,0.00
2019-06-27T02:54:28.207Z,0.00
2019-06-27T02:55:28.202Z,0.00
2019-06-27T02:56:28.206Z,0.00
2019-06-27T02:57:28.210Z,0.00
2019-06-27T02:58:31.665Z,0.00
2019-06-27T02:59:28.216Z,0.00
2019-06-27T03:00:28.226Z,0.00
2019-06-27T03:01:28.220Z,0.00
2019-06-27T03:02:28.222Z,0.00
2019-06-27T03:03:28.223Z,0.00
2019-06-27T03:04:28.228Z,0.00
2019-06-27T03:05:28.239Z,0.00
2019-06-27T03:06:28.232Z,0.00
2019-06-27T03:07:28.236Z,0.00
2019-06-27T03:08:28.239Z,0.00
2019-06-27T03:09:28.248Z,5.63
2019-06-27T03:10:28.242Z,5.63
2019-06-27T03:11:28.248Z,5.63
2019-06-27T03:12:28.251Z,5.63
2019-06-27T03:13:30.080Z,5.63
2019-06-27T03:14:28.255Z,5.63
2019-06-27T03:15:28.258Z,5.63
2019-06-27T03:16:28.258Z,5.63
2019-06-27T03:17:28.264Z,5.63
2019-06-27T03:18:35.017Z,5.63
2019-06-27T03:19:28.702Z,5.63
2019-06-27T03:20:28.270Z,5.63
2019-06-27T03:21:28.285Z,5.63
2019-06-27T03:22:28.278Z,11.25
2019-06-27T03:23:28.278Z,11.25
2019-06-27T03:24:28.284Z,11.25
2019-06-27T03:25:28.285Z,11.25
2019-06-27T03:26:28.291Z,11.25
2019-06-27T03:27:28.287Z,11.25
2019-06-27T03:28:45.112Z,11.25
2019-06-27T03:29:28.299Z,11.25
2019-06-27T03:30:28.303Z,16.88
2019-06-27T03:31:28.309Z,16.88
2019-06-27T03:32:28.319Z,16.88
2019-06-27T03:33:28.312Z,16.88
2019-06-27T03:34:28.306Z,16.88
2019-06-27T03:35:28.308Z,16.88
2019-06-27T03:36:28.311Z,16.88
2019-06-27T03:37:28.316Z,16.88
2019-06-27T03:38:28.374Z,22.50
2019-06-27T03:39:28.320Z,22.50
2019-06-27T03:40:28.322Z,22.50
2019-06-27T03:41:28.323Z,22.50
2019-06-27T03:42:28.326Z,22.50
2019-06-27T03:43:28.327Z,22.50
2019-06-27T03:44:28.327Z,22.50
2019-06-27T03:45:28.328Z,28.13
2019-06-27T03:46:28.332Z,28.13
2019-06-27T03:47:28.336Z,28.13
2019-06-27T03:48:28.335Z,28.13
2019-06-27T03:49:28.340Z,28.13
2019-06-27T03:50:29.134Z,28.13
2019-06-27T03:51:28.348Z,28.13
2019-06-27T03:52:28.347Z,28.13
2019-06-27T03:53:28.346Z,33.75
2019-06-27T03:54:28.348Z,33.75
2019-06-27T03:55:28.355Z,33.75
2019-06-27T03:56:28.354Z,33.75
2019-06-27T03:57:28.367Z,33.75
2019-06-27T03:58:28.357Z,33.75
2019-06-27T03:59:28.364Z,33.75
2019-06-27T04:00:28.365Z,33.75
2019-06-27T04:01:28.365Z,39.38
2019-06-27T04:02:28.364Z,39.38
2019-06-27T04:03:28.377Z,39.38
2019-06-27T04:04:28.367Z,39.38
2019-06-27T04:05:28.392Z,39.38
2019-06-27T04:06:28.447Z,39.38
2019-06-27T04:07:28.398Z,39.38
2019-06-27T04:08:28.390Z,45.00
2019-06-27T04:09:28.383Z,45.00
2019-06-27T04:10:28.381Z,45.00
2019-06-27T04:11:28.394Z,45.00
2019-06-27T04:12:28.396Z,45.00
2019-06-27T04:13:28.392Z,45.00
2019-06-27T04:14:28.390Z,45.00
2019-06-27T04:15:28.390Z,50.63
2019-06-27T04:16:28.397Z,50.63
2019-06-27T04:17:28.395Z,50.63
2019-06-27T04:18:28.397Z,50.63
2019-06-27T04:19:28.400Z,50.63
2019-06-27T04:20:28.401Z,56.25
2019-06-27T04:21:28.407Z,56.25
2019-06-27T04:22:28.403Z,56.25
2019-06-27T04:23:28.405Z,56.25
2019-06-27T04:24:28.451Z,61.88
2019-06-27T04:25:28.409Z,61.88
2019-06-27T04:26:28.449Z,61.88
2019-06-27T04:27:28.415Z,61.88
2019-06-27T04:28:28.414Z,67.50
2019-06-27T04:29:34.187Z,67.50
2019-06-27T04:30:28.425Z,61.88
2019-06-27T04:31:28.420Z,67.50
2019-06-27T04:32:28.466Z,67.50
2019-06-27T04:33:28.425Z,67.50
2019-06-27T04:34:28.430Z,73.13
2019-06-27T04:35:28.453Z,73.13
2019-06-27T04:36:28.428Z,73.13
2019-06-27T04:37:28.431Z,78.75
2019-06-27T04:38:28.432Z,78.75
2019-06-27T04:39:28.432Z,78.75
2019-06-27T04:40:28.442Z,84.38
2019-06-27T04:41:28.439Z,90.00
2019-06-27T04:42:28.443Z,90.00
2019-06-27T04:43:28.439Z,90.00
2019-06-27T04:44:28.439Z,95.63
2019-06-27T04:45:28.442Z,95.63
2019-06-27T04:46:28.449Z,101.25
2019-06-27T04:47:28.454Z,101.25
2019-06-27T04:48:28.456Z,101.25
2019-06-27T04:49:28.447Z,106.88
2019-06-27T04:50:28.458Z,106.88
2019-06-27T04:51:28.454Z,106.88
2019-06-27T04:52:28.489Z,112.50
2019-06-27T04:53:28.456Z,112.50
2019-06-27T04:54:28.461Z,112.50
2019-06-27T04:55:28.464Z,118.13
2019-06-27T04:56:28.452Z,118.13
2019-06-27T04:57:28.463Z,118.13
2019-06-27T04:58:28.459Z,123.75
2019-06-27T04:59:28.462Z,118.13
2019-06-27T05:00:28.464Z,123.75
2019-06-27T05:01:28.466Z,123.75
2019-06-27T05:02:30.803Z,129.38
2019-06-27T05:03:28.473Z,129.38
2019-06-27T05:04:28.469Z,135.00
2019-06-27T05:05:28.470Z,135.00
2019-06-27T05:06:28.480Z,140.63
2019-06-27T05:07:28.472Z,140.63
2019-06-27T05:08:28.479Z,146.25
2019-06-27T05:09:28.474Z,157.50
2019-06-27T05:10:28.478Z,151.88
2019-06-27T05:11:28.476Z,185.63
2019-06-27T05:12:28.480Z,208.13
2019-06-27T05:13:28.513Z,191.25
2019-06-27T05:14:28.480Z,213.75
2019-06-27T05:15:28.484Z,309.38
2019-06-27T05:16:28.486Z,320.63
2019-06-27T05:17:28.486Z,236.25
2019-06-27T05:18:28.489Z,208.13
2019-06-27T05:19:28.490Z,208.13
2019-06-27T05:20:28.496Z,309.38
2019-06-27T05:21:28.497Z,348.75
2019-06-27T05:22:28.503Z,348.75
2019-06-27T05:23:28.499Z,309.38
2019-06-27T05:24:28.503Z,225.00
2019-06-27T05:25:29.688Z,202.50
2019-06-27T05:26:28.507Z,208.13
2019-06-27T05:27:28.507Z,213.75
2019-06-27T05:28:28.510Z,213.75
2019-06-27T05:29:28.512Z,213.75
2019-06-27T05:30:28.515Z,219.38
2019-06-27T05:31:28.516Z,213.75
2019-06-27T05:32:28.521Z,225.00
2019-06-27T05:33:28.520Z,270.00
2019-06-27T05:34:28.537Z,331.88
2019-06-27T05:35:28.527Z,450.00
2019-06-27T05:36:28.527Z,421.88
2019-06-27T05:37:28.528Z,309.38
2019-06-27T05:38:28.533Z,264.38
2019-06-27T05:39:28.531Z,241.88
2019-06-27T05:40:28.534Z,225.00
2019-06-27T05:41:28.538Z,225.00
2019-06-27T05:42:28.537Z,225.00
2019-06-27T05:43:28.538Z,225.00
2019-06-27T05:44:28.544Z,230.63
2019-06-27T05:45:28.546Z,230.63
2019-06-27T05:46:28.580Z,230.63
2019-06-27T05:47:28.551Z,230.63
2019-06-27T05:48:28.552Z,225.00
2019-06-27T05:49:28.563Z,225.00
2019-06-27T05:50:28.562Z,230.63
2019-06-27T05:51:28.557Z,236.25
2019-06-27T05:52:28.626Z,241.88
2019-06-27T05:53:28.928Z,241.88
2019-06-27T05:54:28.584Z,241.88
2019-06-27T05:55:28.575Z,241.88
2019-06-27T05:56:28.577Z,258.75
2019-06-27T05:57:28.573Z,275.63
2019-06-27T05:58:28.585Z,281.25
2019-06-27T05:59:28.577Z,309.38
2019-06-27T06:00:29.646Z,315.00
2019-06-27T06:01:28.583Z,270.00
2019-06-27T06:02:28.593Z,253.13
2019-06-27T06:03:28.586Z,247.50
2019-06-27T06:04:28.588Z,247.50
2019-06-27T06:05:28.596Z,247.50
2019-06-27T06:06:28.592Z,247.50
2019-06-27T06:07:28.599Z,247.50
2019-06-27T06:08:28.606Z,253.13
2019-06-27T06:09:28.600Z,253.13
2019-06-27T06:10:28.605Z,253.13
2019-06-27T06:11:28.598Z,253.13
2019-06-27T06:12:28.605Z,253.13
2019-06-27T06:13:28.613Z,253.13
2019-06-27T06:14:28.615Z,264.38
2019-06-27T06:15:28.615Z,298.13
2019-06-27T06:16:28.618Z,303.75
2019-06-27T06:17:28.625Z,286.88
2019-06-27T06:18:28.619Z,270.00
2019-06-27T06:19:28.622Z,286.88
2019-06-27T06:20:28.628Z,275.63
2019-06-27T06:21:28.657Z,270.00
2019-06-27T06:22:28.630Z,247.50
2019-06-27T06:23:28.633Z,253.13
2019-06-27T06:24:29.361Z,247.50
2019-06-27T06:25:28.645Z,253.13
2019-06-27T06:26:28.648Z,247.50
2019-06-27T06:27:28.648Z,247.50
2019-06-27T06:28:28.655Z,241.88
2019-06-27T06:29:28.678Z,241.88
2019-06-27T06:30:43.237Z,247.50
2019-06-27T06:31:28.664Z,241.88
2019-06-27T06:32:28.655Z,241.88
2019-06-27T06:33:28.677Z,241.88
2019-06-27T06:34:28.664Z,241.88
2019-06-27T06:35:28.674Z,241.88
2019-06-27T06:36:28.666Z,241.88
2019-06-27T06:37:28.669Z,236.25
2019-06-27T06:38:28.672Z,236.25
2019-06-27T06:39:28.675Z,241.88
2019-06-27T06:40:28.689Z,236.25
2019-06-27T06:41:28.678Z,236.25
2019-06-27T06:42:28.683Z,236.25
2019-06-27T06:43:28.683Z,230.63
2019-06-27T06:44:28.683Z,236.25
2019-06-27T06:45:28.689Z,236.25
2019-06-27T06:46:28.711Z,230.63
2019-06-27T06:47:28.690Z,230.63
2019-06-27T06:48:28.699Z,230.63
2019-06-27T06:49:28.709Z,225.00
2019-06-27T06:50:28.697Z,225.00
2019-06-27T06:51:28.705Z,225.00
2019-06-27T06:52:28.704Z,219.38
2019-06-27T06:53:28.708Z,219.38
2019-06-27T06:54:28.710Z,213.75
2019-06-27T06:55:28.744Z,208.13
2019-06-27T06:56:28.716Z,208.13
2019-06-27T06:57:28.716Z,202.50
2019-06-27T06:58:28.716Z,196.88
2019-06-27T06:59:28.719Z,196.88
2019-06-27T07:00:28.721Z,191.25
2019-06-27T07:01:28.729Z,185.63
2019-06-27T07:02:28.726Z,185.63
2019-06-27T07:03:28.729Z,180.00
2019-06-27T07:04:28.731Z,174.38
2019-06-27T07:05:28.736Z,163.13
2019-06-27T07:06:28.773Z,163.13
2019-06-27T07:07:28.758Z,140.63
2019-06-27T07:08:28.772Z,129.38
2019-06-27T07:09:28.756Z,118.13
2019-06-27T07:10:28.783Z,112.50
2019-06-27T07:11:28.920Z,112.50
2019-06-27T07:12:28.751Z,106.88
2019-06-27T07:13:28.834Z,101.25
2019-06-27T07:14:28.757Z,95.63
2019-06-27T07:15:28.759Z,90.00
2019-06-27T07:16:28.759Z,90.00
2019-06-27T07:17:28.774Z,84.38
2019-06-27T07:18:28.773Z,84.38
2019-06-27T07:19:28.823Z,84.38
2019-06-27T07:20:28.776Z,78.75
2019-06-27T07:21:28.781Z,78.75
2019-06-27T07:22:28.781Z,78.75
2019-06-27T07:23:28.803Z,78.75
2019-06-27T07:24:28.781Z,73.13
2019-06-27T07:25:28.773Z,73.13
2019-06-27T07:26:28.783Z,73.13
2019-06-27T07:27:28.786Z,73.13
2019-06-27T07:28:28.787Z,73.13
2019-06-27T07:29:28.787Z,73.13
2019-06-27T07:30:28.804Z,73.13
2019-06-27T07:31:28.791Z,73.13
2019-06-27T07:32:28.789Z,73.13
2019-06-27T07:33:28.863Z,73.13
2019-06-27T07:34:28.805Z,73.13
2019-06-27T07:35:28.812Z,73.13
2019-06-27T07:36:28.799Z,73.13
2019-06-27T07:37:28.800Z,73.13
2019-06-27T07:38:28.812Z,73.13
2019-06-27T07:39:28.823Z,73.13
2019-06-27T07:40:28.807Z,73.13
2019-06-27T07:41:28.813Z,73.13
2019-06-27T07:42:28.823Z,73.13
2019-06-27T07:43:28.816Z,73.13
2019-06-27T07:44:28.821Z,73.13
2019-06-27T07:45:28.826Z,73.13
2019-06-27T07:46:28.855Z,73.13
2019-06-27T07:47:28.829Z,73.13
2019-06-27T07:48:28.846Z,67.50
2019-06-27T07:49:28.827Z,67.50
2019-06-27T07:50:28.870Z,67.50
2019-06-27T07:51:28.833Z,67.50
2019-06-27T07:52:28.852Z,67.50
2019-06-27T07:53:28.844Z,67.50
2019-06-27T07:54:28.833Z,67.50
2019-06-27T07:55:28.839Z,67.50
2019-06-27T07:56:28.842Z,67.50
2019-06-27T07:57:28.845Z,67.50
2019-06-27T07:58:28.845Z,67.50
2019-06-27T07:59:28.851Z,67.50
2019-06-27T08:00:28.847Z,67.50
2019-06-27T08:01:35.243Z,61.88
2019-06-27T08:02:28.869Z,67.50
2019-06-27T08:03:28.855Z,67.50
2019-06-27T08:04:28.879Z,67.50
2019-06-27T08:05:28.866Z,67.50
2019-06-27T08:06:28.863Z,61.88
2019-06-27T08:07:28.867Z,61.88
2019-06-27T08:08:28.923Z,61.88
2019-06-27T08:09:28.888Z,61.88
2019-06-27T08:10:28.871Z,67.50
2019-06-27T08:11:28.873Z,67.50
2019-06-27T08:12:28.876Z,67.50
2019-06-27T08:13:28.996Z,67.50
2019-06-27T08:14:28.907Z,67.50
2019-06-27T08:15:28.884Z,67.50
2019-06-27T08:16:28.881Z,73.13
2019-06-27T08:17:28.886Z,78.75
2019-06-27T08:18:28.936Z,73.13
2019-06-27T08:19:28.892Z,73.13
2019-06-27T08:20:28.893Z,73.13
2019-06-27T08:21:28.910Z,78.75
2019-06-27T08:22:28.898Z,78.75
2019-06-27T08:23:41.013Z,78.75
2019-06-27T08:24:28.905Z,78.75
2019-06-27T08:25:28.906Z,78.75
2019-06-27T08:26:28.909Z,78.75
2019-06-27T08:27:29.166Z,73.13
2019-06-27T08:28:28.913Z,78.75
2019-06-27T08:29:28.914Z,84.38
2019-06-27T08:30:28.910Z,95.63
2019-06-27T08:31:28.931Z,135.00
2019-06-27T08:32:28.920Z,168.75
2019-06-27T08:33:28.929Z,185.63
2019-06-27T08:34:28.974Z,180.00
2019-06-27T08:35:28.930Z,180.00
2019-06-27T08:36:28.930Z,174.38
2019-06-27T08:37:28.935Z,146.25
2019-06-27T08:38:28.935Z,157.50
2019-06-27T08:39:28.938Z,185.63
2019-06-27T08:40:28.985Z,196.88
2019-06-27T08:41:28.943Z,202.50
2019-06-27T08:42:28.955Z,202.50
2019-06-27T08:43:28.971Z,208.13
2019-06-27T08:44:29.462Z,208.13
2019-06-27T08:45:28.967Z,208.13
2019-06-27T08:46:29.952Z,213.75
2019-06-27T08:47:28.976Z,213.75
2019-06-27T08:48:29.035Z,219.38
2019-06-27T08:49:28.988Z,219.38
2019-06-27T08:50:28.998Z,219.38
2019-06-27T08:51:28.998Z,219.38
2019-06-27T08:52:29.010Z,225.00
2019-06-27T08:53:29.003Z,230.63
2019-06-27T08:54:29.016Z,225.00
2019-06-27T08:55:29.029Z,230.63
2019-06-27T08:56:29.024Z,230.63
2019-06-27T08:57:29.161Z,225.00
2019-06-27T08:58:29.635Z,225.00
2019-06-27T08:59:29.334Z,236.25
2019-06-27T09:00:29.048Z,230.63
2019-06-27T09:01:29.051Z,225.00
2019-06-27T09:02:29.065Z,230.63
2019-06-27T09:03:29.065Z,230.63
2019-06-27T09:04:29.070Z,241.88
2019-06-27T09:05:29.087Z,241.88
2019-06-27T09:06:29.085Z,241.88
2019-06-27T09:07:29.098Z,241.88
2019-06-27T09:08:29.098Z,236.25
2019-06-27T09:09:29.106Z,241.88
2019-06-27T09:10:29.113Z,247.50
2019-06-27T09:11:29.422Z,247.50
2019-06-27T09:12:29.178Z,253.13
2019-06-27T09:13:29.137Z,264.38
2019-06-27T09:14:29.142Z,270.00
2019-06-27T09:15:29.149Z,264.38
2019-06-27T09:16:29.160Z,264.38
2019-06-27T09:17:29.165Z,275.63
2019-06-27T09:18:29.171Z,281.25
2019-06-27T09:19:29.180Z,292.50
2019-06-27T09:20:29.192Z,286.88
2019-06-27T09:21:29.207Z,275.63
2019-06-27T09:22:29.204Z,264.38
2019-06-27T09:23:29.213Z,264.38
2019-06-27T09:24:29.220Z,264.38
2019-06-27T09:25:29.231Z,264.38
2019-06-27T09:26:29.245Z,270.00
2019-06-27T09:27:29.349Z,270.00
2019-06-27T09:28:29.254Z,270.00
2019-06-27T09:29:31.152Z,275.63
2019-06-27T09:30:29.288Z,281.25
2019-06-27T09:31:29.280Z,281.25
2019-06-27T09:32:29.287Z,281.25
2019-06-27T09:33:29.298Z,281.25
2019-06-27T09:34:29.301Z,286.88
2019-06-27T09:35:29.313Z,286.88
2019-06-27T09:36:29.322Z,292.50
2019-06-27T09:37:29.343Z,298.13
2019-06-27T09:38:29.338Z,303.75
2019-06-27T09:39:29.351Z,309.38
2019-06-27T09:40:29.357Z,315.00
2019-06-27T09:41:29.366Z,320.63
2019-06-27T09:42:29.375Z,326.25
2019-06-27T09:43:29.391Z,331.88
2019-06-27T09:44:29.402Z,343.13
2019-06-27T09:45:29.406Z,348.75
2019-06-27T09:46:29.416Z,360.00
2019-06-27T09:47:29.426Z,371.25
2019-06-27T09:48:29.439Z,371.25
2019-06-27T09:49:33.158Z,376.88
2019-06-27T09:50:31.160Z,388.13
2019-06-27T09:51:30.462Z,393.75
2019-06-27T09:52:29.477Z,405.00
2019-06-27T09:53:31.160Z,410.63
2019-06-27T09:54:31.160Z,427.50
2019-06-27T09:55:29.505Z,433.13
2019-06-27T09:56:29.524Z,444.38
2019-06-27T09:57:29.525Z,455.63
2019-06-27T09:58:29.545Z,466.88
2019-06-27T09:59:29.545Z,483.75
2019-06-27T10:00:33.169Z,495.00
2019-06-27T10:01:29.593Z,506.25
2019-06-27T10:02:41.060Z,523.13
2019-06-27T10:03:29.605Z,528.75
2019-06-27T10:04:29.605Z,534.38
2019-06-27T10:05:29.604Z,545.63
2019-06-27T10:06:29.689Z,551.25
2019-06-27T10:07:29.634Z,562.50
2019-06-27T10:08:29.646Z,579.38
2019-06-27T10:09:31.190Z,590.63
2019-06-27T10:10:29.667Z,624.38
2019-06-27T10:11:29.675Z,613.13
2019-06-27T10:12:41.817Z,624.38
2019-06-27T10:13:29.701Z,641.25
2019-06-27T10:14:29.714Z,652.50
2019-06-27T10:15:31.698Z,669.38
2019-06-27T10:16:31.676Z,686.25
2019-06-27T10:17:29.749Z,686.25
2019-06-27T10:18:29.758Z,703.13
2019-06-27T10:19:31.875Z,720.00
2019-06-27T10:20:29.804Z,736.88
2019-06-27T10:21:30.010Z,748.13
2019-06-27T10:22:29.815Z,770.63
2019-06-27T10:23:29.831Z,781.88
2019-06-27T10:24:29.864Z,793.13
2019-06-27T10:25:29.843Z,810.00
2019-06-27T10:26:29.856Z,821.25
2019-06-27T10:27:29.870Z,838.13
2019-06-27T10:28:29.896Z,843.75
2019-06-27T10:29:29.901Z,843.75
2019-06-27T10:30:29.913Z,849.38
2019-06-27T10:31:29.920Z,939.38
2019-06-27T10:32:29.938Z,866.25
2019-06-27T10:33:29.945Z,877.50
2019-06-27T10:34:29.967Z,900.00
2019-06-27T10:35:29.972Z,905.63
2019-06-27T10:36:30.003Z,911.25
2019-06-27T10:37:29.997Z,939.38
2019-06-27T10:38:30.007Z,956.25
2019-06-27T10:39:30.020Z,973.13
2019-06-27T10:40:30.037Z,984.38
2019-06-27T10:41:30.049Z,995.63
2019-06-27T10:42:30.062Z,995.63
2019-06-27T10:43:30.118Z,1001.25
2019-06-27T10:44:30.091Z,1012.50
2019-06-27T10:45:30.105Z,1035.00
2019-06-27T10:46:30.527Z,1051.88
2019-06-27T10:47:30.190Z,1057.50
2019-06-27T10:48:30.576Z,1063.13
2019-06-27T10:49:30.163Z,1074.38
2019-06-27T10:50:30.170Z,1074.38
2019-06-27T10:51:30.179Z,1068.75
2019-06-27T10:52:30.194Z,1068.75
2019-06-27T10:53:30.211Z,1063.13
2019-06-27T10:54:30.221Z,1068.75
2019-06-27T10:55:30.255Z,1091.25
2019-06-27T10:56:30.358Z,1108.13
2019-06-27T10:57:31.432Z,1130.63
2019-06-27T10:58:30.275Z,1153.13
2019-06-27T10:59:30.286Z,1170.00
2019-06-27T11:00:30.303Z,1181.25
2019-06-27T11:01:30.316Z,1186.88
2019-06-27T11:02:30.384Z,1181.25
2019-06-27T11:03:30.343Z,1164.38
2019-06-27T11:04:30.356Z,1164.38
2019-06-27T11:05:30.374Z,1170.00
2019-06-27T11:06:30.384Z,1170.00
2019-06-27T11:07:30.400Z,1170.00
2019-06-27T11:08:30.421Z,1186.88
2019-06-27T11:09:30.511Z,1186.88
2019-06-27T11:10:30.492Z,1198.13
2019-06-27T11:11:30.469Z,1203.75
2019-06-27T11:12:30.532Z,1203.75
2019-06-27T11:13:30.490Z,1198.13
2019-06-27T11:14:30.551Z,1175.63
2019-06-27T11:15:30.539Z,1170.00
2019-06-27T11:16:30.535Z,1170.00
2019-06-27T11:17:30.580Z,1181.25
2019-06-27T11:18:30.562Z,1170.00
2019-06-27T11:19:30.633Z,1158.75
2019-06-27T11:20:30.589Z,1175.63
2019-06-27T11:21:30.611Z,1181.25
2019-06-27T11:22:30.618Z,1209.38
2019-06-27T11:23:30.645Z,1237.50
2019-06-27T11:24:30.661Z,1271.25
2019-06-27T11:25:30.712Z,1316.25
2019-06-27T11:26:30.923Z,1372.50
2019-06-27T11:27:30.736Z,1423.13
2019-06-27T11:28:30.768Z,1479.38
2019-06-27T11:29:30.763Z,1530.00
2019-06-27T11:30:30.804Z,1591.88
2019-06-27T11:31:30.769Z,1625.63
2019-06-27T11:32:30.833Z,1653.75
2019-06-27T11:33:33.074Z,1698.75
2019-06-27T11:34:34.711Z,1721.25
2019-06-27T11:35:30.898Z,1738.13
2019-06-27T11:36:30.864Z,1743.75
2019-06-27T11:37:30.883Z,1760.63
2019-06-27T11:38:30.884Z,1783.13
2019-06-27T11:39:30.913Z,1794.38
2019-06-27T11:40:30.917Z,1788.75
2019-06-27T11:41:30.933Z,1800.00
2019-06-27T11:42:30.957Z,1811.25
2019-06-27T11:43:30.978Z,1822.50
2019-06-27T11:44:30.976Z,1828.13
2019-06-27T11:45:30.996Z,1833.75
2019-06-27T11:46:31.010Z,1839.38
2019-06-27T11:47:34.583Z,1845.00
2019-06-27T11:48:31.130Z,1845.00
2019-06-27T11:49:31.057Z,1861.88
2019-06-27T11:50:32.341Z,1878.75
2019-06-27T11:51:31.147Z,1901.25
2019-06-27T11:52:31.111Z,1890.00
2019-06-27T11:53:31.125Z,1895.63
2019-06-27T11:54:31.170Z,1895.63
2019-06-27T11:55:31.162Z,1901.25
2019-06-27T11:56:31.180Z,1901.25
2019-06-27T11:57:31.189Z,1878.75
2019-06-27T11:58:31.209Z,1873.13
2019-06-27T11:59:31.230Z,1873.13
2019-06-27T12:00:31.244Z,1861.88
2019-06-27T12:01:31.264Z,1850.63
2019-06-27T12:02:31.289Z,1839.38
2019-06-27T12:03:31.293Z,1833.75
2019-06-27T12:04:32.260Z,1828.13
2019-06-27T12:05:31.328Z,1828.13
2019-06-27T12:06:31.360Z,1833.75
2019-06-27T12:07:31.402Z,1839.38
2019-06-27T12:08:31.376Z,1850.63
2019-06-27T12:09:31.423Z,1867.50
2019-06-27T12:10:31.434Z,1867.50
2019-06-27T12:11:31.442Z,1856.25
2019-06-27T12:12:31.444Z,1850.63
2019-06-27T12:13:31.462Z,1867.50
2019-06-27T12:14:31.479Z,1850.63
2019-06-27T12:15:31.496Z,1850.63
2019-06-27T12:16:31.523Z,1833.75
2019-06-27T12:17:31.532Z,1816.88
2019-06-27T12:18:31.544Z,1788.75
2019-06-27T12:19:31.561Z,1755.00
2019-06-27T12:20:31.582Z,1687.50
2019-06-27T12:21:31.604Z,1614.38
2019-06-27T12:22:31.612Z,1535.63
2019-06-27T12:23:31.659Z,1501.88
2019-06-27T12:24:31.646Z,1501.88
2019-06-27T12:25:31.663Z,1530.00
2019-06-27T12:26:31.683Z,1586.25
2019-06-27T12:27:31.697Z,1659.38
2019-06-27T12:28:31.712Z,1743.75
2019-06-27T12:29:31.729Z,1828.13
2019-06-27T12:30:31.749Z,1901.25
2019-06-27T12:31:31.763Z,1980.00
2019-06-27T12:32:31.775Z,2030.63
2019-06-27T12:33:31.828Z,2064.38
2019-06-27T12:34:31.815Z,2086.88
2019-06-27T12:35:32.723Z,2070.00
2019-06-27T12:36:31.844Z,2041.88
2019-06-27T12:37:31.874Z,1985.63
2019-06-27T12:38:31.877Z,1957.50
2019-06-27T12:39:31.902Z,1968.75
2019-06-27T12:40:31.911Z,1963.13
2019-06-27T12:41:31.936Z,2013.75
2019-06-27T12:42:33.038Z,2064.38